Terminal Aerodrome Forecast
Issued by NWS

Home | Current Version | Previous Version | Text Only | Print | Product List | Glossary Off
Versions: 1 2 3 4 5 6 7 8 9 10 11 12 13 14 15

654
FTUS43 KICT 271133
TAFSLN
TAF
KSLN 271133Z 2712/2812 33012KT P6SM VCTS BKN060CB
     FM271600 09005KT P6SM BKN060
     FM271900 35018G27KT P6SM VCTS SCT020 BKN045CB
     FM272300 35014KT P6SM BKN035=

USA.gov is the U.S. government's official web portal to all federal, state and local government web resources and services.